Time;durP1;ratioP1;P1;durP2;ratioP2;P2;SDS_P1;SDS_P2;PMS_P1;PMS_P2;Temp;Humidity;BMP_temperature;BMP_pressure;BME280_temperature;BME280_humidity;BME280_pressure;Samples;Min_cycle;Max_cycle;Signal;HPM_P1;HPM_P2
2024/02/28 00:00:29;;;;;;;41.90;26.52;;;384.00;2252.80;;;;;;5066689;28;20024;-70
2024/02/28 00:02:55;;;;;;;32.92;24.63;;;359.30;2252.80;;;;;;5068480;28;20029;-70
2024/02/28 00:05:21;;;;;;;37.47;23.65;;;359.20;2252.80;;;;;;5068020;28;20016;-71
2024/02/28 00:07:47;;;;;;;47.70;27.15;;;359.20;2304.00;;;;;;5081399;28;20044;-71
2024/02/28 00:10:13;;;;;;;40.83;26.83;;;359.10;2304.00;;;;;;5062374;28;20379;-71
2024/02/28 00:12:40;;;;;;;42.75;26.42;;;359.20;2278.40;;;;;;5063458;28;20509;-70
2024/02/28 00:15:10;;;;;;;41.85;28.58;;;359.10;2278.40;;;;;;5064567;28;20277;-70
2024/02/28 00:17:40;;;;;;;36.92;26.27;;;359.00;2304.00;;;;;;5068964;28;20024;-70
2024/02/28 00:20:09;;;;;;;67.80;46.38;;;358.90;2329.60;;;;;;5072486;28;20031;-70
2024/02/28 00:22:38;;;;;;;53.65;32.53;;;359.00;2304.00;;;;;;5076439;28;20024;-70
2024/02/28 00:25:06;;;;;;;50.80;32.17;;;359.00;2278.40;;;;;;5070180;28;20116;-71
2024/02/28 00:27:33;;;;;;;36.30;26.70;;;;;;;;;;5073134;28;20028;-70
2024/02/28 00:29:59;;;;;;;35.47;23.92;;;;;;;;;;5066417;28;20147;-71
2024/02/28 00:32:25;;;;;;;37.17;21.70;;;;;;;;;;5073718;28;20024;-71
2024/02/28 00:34:51;;;;;;;33.58;24.73;;;358.70;2329.60;;;;;;5068584;28;20052;-72
2024/02/28 00:37:16;;;;;;;45.40;34.75;;;358.70;2329.60;;;;;;5071853;28;20072;-71
2024/02/28 00:39:45;;;;;;;49.75;36.70;;;358.60;2329.60;;;;;;5079312;28;20055;-71
2024/02/28 00:42:11;;;;;;;49.28;33.35;;;358.50;2329.60;;;;;;5073216;28;20016;-71
2024/02/28 00:44:36;;;;;;;48.00;32.55;;;358.60;2329.60;;;;;;5065799;28;20029;-71
2024/02/28 00:47:02;;;;;;;49.42;35.30;;;358.50;2329.60;;;;;;5088890;28;20458;-72
2024/02/28 00:49:28;;;;;;;51.88;34.17;;;358.50;2329.60;;;;;;5071584;28;20477;-71
2024/02/28 00:51:54;;;;;;;55.85;35.00;;;358.50;2329.60;;;;;;5070863;28;20069;-72
2024/02/28 00:54:21;;;;;;;44.25;26.83;;;358.50;2329.60;;;;;;5071702;28;20069;-72
2024/02/28 00:56:47;;;;;;;42.38;26.05;;;358.50;2329.60;;;;;;5071651;28;20013;-71
2024/02/28 00:59:13;;;;;;;51.78;32.92;;;358.50;2329.60;;;;;;5071707;28;20143;-72
2024/02/28 01:01:41;;;;;;;72.10;46.85;;;358.50;2329.60;;;;;;5072682;28;20104;-71
2024/02/28 01:04:07;;;;;;;70.80;42.10;;;358.50;2329.60;;;;;;5072599;28;20024;-72
2024/02/28 01:06:33;;;;;;;64.80;41.30;;;358.50;2329.60;;;;;;5058378;28;20155;-72
2024/02/28 01:08:59;;;;;;;67.88;40.63;;;358.50;2329.60;;;;;;5072489;28;20170;-71
2024/02/28 01:11:25;;;;;;;63.58;39.63;;;358.60;2329.60;;;;;;5071421;28;20028;-72
2024/02/28 01:13:51;;;;;;;59.45;46.85;;;358.70;2329.60;;;;;;5079922;28;20032;-71
2024/02/28 01:16:16;;;;;;;66.65;44.92;;;358.70;2329.60;;;;;;5081504;28;20363;-71
2024/02/28 01:18:42;;;;;;;65.45;41.40;;;358.70;2329.60;;;;;;5073823;28;20040;-71
2024/02/28 01:21:08;;;;;;;67.85;43.53;;;358.60;2329.60;;;;;;5079362;28;20129;-72
2024/02/28 01:23:35;;;;;;;36.83;25.45;;;358.60;2329.60;;;;;;5075413;28;20554;-70
2024/02/28 01:26:03;;;;;;;27.98;19.45;;;358.50;2329.60;;;;;;5080306;28;20056;-71
2024/02/28 01:28:29;;;;;;;31.33;19.48;;;358.40;2329.60;;;;;;5070086;28;20022;-71
2024/02/28 01:30:55;;;;;;;25.08;18.63;;;358.40;2329.60;;;;;;5066358;28;20115;-71
2024/02/28 01:33:21;;;;;;;26.23;17.17;;;333.70;2329.60;;;;;;5079163;28;20016;-71
2024/02/28 01:35:47;;;;;;;38.60;27.30;;;333.60;2329.60;;;;;;5077766;28;20033;-72
2024/02/28 01:38:13;;;;;;;35.67;23.02;;;358.40;2329.60;;;;;;5084185;28;20512;-71
2024/02/28 01:40:43;;;;;;;28.30;18.42;;;358.40;2329.60;;;;;;5074941;28;20036;-72
2024/02/28 01:43:11;;;;;;;25.48;17.20;;;358.50;2329.60;;;;;;5088011;28;20023;-71
2024/02/28 01:45:36;;;;;;;44.03;30.30;;;358.40;2329.60;;;;;;5085652;28;20033;-72
2024/02/28 01:48:05;;;;;;;44.15;30.55;;;358.50;2329.60;;;;;;5085969;28;20024;-72
2024/02/28 01:50:31;;;;;;;38.42;25.83;;;358.50;2329.60;;;;;;5089404;28;20063;-71
2024/02/28 01:52:58;;;;;;;46.88;29.17;;;358.50;2329.60;;;;;;5089303;28;20020;-71
2024/02/28 01:55:24;;;;;;;45.83;29.67;;;358.50;2329.60;;;;;;5089985;28;20036;-71
2024/02/28 01:57:51;;;;;;;44.28;24.58;;;358.40;2329.60;;;;;;5089257;28;20365;-71
2024/02/28 02:00:18;;;;;;;34.33;23.95;;;358.40;2329.60;;;;;;5089689;28;20070;-71
2024/02/28 02:02:44;;;;;;;58.53;36.75;;;333.70;2329.60;;;;;;5088845;28;20096;-70
2024/02/28 02:05:10;;;;;;;48.75;31.33;;;333.50;2329.60;;;;;;5089730;28;20052;-72
2024/02/28 02:07:36;;;;;;;38.00;26.10;;;333.40;2329.60;;;;;;5088884;28;20082;-70
2024/02/28 02:10:02;;;;;;;40.45;25.85;;;333.40;2329.60;;;;;;5089519;28;20036;-71
2024/02/28 02:12:28;;;;;;;38.88;26.00;;;333.30;2329.60;;;;;;5089721;28;20023;-71
2024/02/28 02:14:53;;;;;;;40.60;24.00;;;333.40;2329.60;;;;;;5089702;28;20028;-72
2024/02/28 02:17:19;;;;;;;39.72;26.15;;;333.40;2329.60;;;;;;5087397;28;20473;-71
2024/02/28 02:19:45;;;;;;;56.88;37.78;;;333.40;2329.60;;;;;;5087981;28;20107;-72
2024/02/28 02:22:13;;;;;;;45.47;31.08;;;333.40;2329.60;;;;;;5089018;28;20074;-72
2024/02/28 02:24:39;;;;;;;45.55;28.48;;;333.20;2329.60;;;;;;5089422;28;20020;-71
2024/02/28 02:27:05;;;;;;;40.40;25.30;;;333.20;2329.60;;;;;;5088918;28;20020;-71
2024/02/28 02:29:31;;;;;;;35.30;23.88;;;332.90;2329.60;;;;;;5089317;28;20026;-76
2024/02/28 02:31:57;;;;;;;36.85;25.08;;;332.90;2329.60;;;;;;5088919;28;20024;-71
2024/02/28 02:34:23;;;;;;;34.80;25.00;;;332.90;2329.60;;;;;;5087934;28;20016;-72
2024/02/28 02:36:48;;;;;;;38.35;25.52;;;332.90;2329.60;;;;;;5087350;28;20076;-71
2024/02/28 02:39:14;;;;;;;37.13;25.98;;;332.80;2329.60;;;;;;5088449;28;20043;-72
2024/02/28 02:41:42;;;;;;;42.85;26.73;;;332.90;2329.60;;;;;;5088521;28;20135;-71
2024/02/28 02:44:08;;;;;;;38.05;26.95;;;333.00;2329.60;;;;;;5088977;28;20122;-72
2024/02/28 02:46:34;;;;;;;41.00;26.38;;;333.00;2329.60;;;;;;5088583;28;20016;-71
2024/02/28 02:48:59;;;;;;;37.83;26.02;;;332.90;2329.60;;;;;;5088520;28;20028;-71
2024/02/28 02:51:25;;;;;;;40.67;27.95;;;333.00;2329.60;;;;;;5088350;28;20100;-71
2024/02/28 02:53:51;;;;;;;40.50;27.33;;;333.00;2329.60;;;;;;5088386;28;20115;-71
2024/02/28 02:56:17;;;;;;;46.40;30.05;;;332.90;2329.60;;;;;;5088964;28;20103;-72
2024/02/28 02:58:43;;;;;;;46.05;31.08;;;332.90;2329.60;;;;;;5088187;28;20132;-72
2024/02/28 03:01:08;;;;;;;45.03;32.33;;;332.90;2329.60;;;;;;5088792;28;20031;-71
2024/02/28 03:03:35;;;;;;;52.22;34.60;;;332.90;2329.60;;;;;;5088007;28;20024;-72
2024/02/28 03:06:00;;;;;;;51.50;33.95;;;333.00;2329.60;;;;;;5088464;28;20482;-72
2024/02/28 03:08:26;;;;;;;64.90;41.15;;;332.90;2329.60;;;;;;5088058;28;20036;-71
2024/02/28 03:10:52;;;;;;;59.10;39.70;;;332.90;2329.60;;;;;;5080348;28;20021;-71
2024/02/28 03:13:18;;;;;;;45.30;32.38;;;333.10;2329.60;;;;;;5083228;28;20027;-73
2024/02/28 03:15:44;;;;;;;40.65;29.05;;;332.90;2329.60;;;;;;5088115;28;20028;-72
2024/02/28 03:18:10;;;;;;;42.75;27.77;;;332.90;2329.60;;;;;;5088707;28;20040;-72
2024/02/28 03:20:38;;;;;;;44.25;29.15;;;332.90;2329.60;;;;;;5088517;28;20020;-72
2024/02/28 03:23:05;;;;;;;42.63;27.10;;;332.90;2329.60;;;;;;5087793;28;20024;-72
2024/02/28 03:25:32;;;;;;;37.13;25.92;;;332.90;2329.60;;;;;;5088463;28;20023;-72
2024/02/28 03:27:59;;;;;;;48.72;27.63;;;332.90;2329.60;;;;;;5088689;28;20032;-72
2024/02/28 03:30:25;;;;;;;44.13;29.30;;;332.80;2329.60;;;;;;5088264;28;20237;-71
2024/02/28 03:32:51;;;;;;;40.95;22.70;;;332.80;2329.60;;;;;;5091922;28;20027;-71
2024/02/28 03:35:17;;;;;;;34.80;20.08;;;332.90;2329.60;;;;;;5092175;28;20031;-72
2024/02/28 03:37:42;;;;;;;29.52;20.52;;;333.00;2329.60;;;;;;5089241;28;20052;-72
2024/02/28 03:40:09;;;;;;;26.88;19.25;;;332.90;2329.60;;;;;;5092443;28;20040;-71
2024/02/28 03:42:34;;;;;;;39.10;25.73;;;332.90;2329.60;;;;;;5092212;28;20579;-71
2024/02/28 03:45:00;;;;;;;61.47;38.95;;;332.90;2329.60;;;;;;5092143;28;20028;-71
2024/02/28 03:47:26;;;;;;;41.47;28.65;;;332.80;2329.60;;;;;;5091922;28;20024;-72
2024/02/28 03:49:52;;;;;;;37.03;24.50;;;308.10;2304.00;;;;;;5092211;28;20110;-72
2024/02/28 03:52:17;;;;;;;36.33;24.25;;;308.00;2304.00;;;;;;5091945;28;20023;-71
2024/02/28 03:54:44;;;;;;;34.47;24.08;;;308.00;2304.00;;;;;;5091607;28;20047;-72
2024/02/28 03:57:10;;;;;;;37.95;21.40;;;308.00;2304.00;;;;;;5089332;28;20098;-71
2024/02/28 03:59:36;;;;;;;35.15;25.75;;;307.90;2304.00;;;;;;5080954;28;20040;-72
2024/02/28 04:02:02;;;;;;;46.10;26.00;;;307.80;2304.00;;;;;;5091798;28;20032;-70
2024/02/28 04:04:27;;;;;;;49.65;33.97;;;307.80;2304.00;;;;;;5091645;28;20435;-71
2024/02/28 04:06:53;;;;;;;54.00;36.20;;;307.60;2304.00;;;;;;5091566;28;20031;-72
2024/02/28 04:09:20;;;;;;;50.58;35.88;;;;;;;;;;5091215;28;20126;-71
2024/02/28 04:11:46;;;;;;;54.75;33.40;;;307.60;2304.00;;;;;;5091583;28;20020;-70
2024/02/28 04:14:11;;;;;;;44.38;29.75;;;307.50;2304.00;;;;;;5082048;28;20024;-72
2024/02/28 04:16:44;;;;;;;40.00;27.40;;;307.20;2304.00;;;;;;5087301;28;20020;-72
2024/02/28 04:19:11;;;;;;;44.60;29.10;;;307.20;2304.00;;;;;;5091647;28;20112;-73
2024/02/28 04:21:37;;;;;;;45.53;29.23;;;307.20;2304.00;;;;;;5091532;28;20024;-71
2024/02/28 04:24:04;;;;;;;41.83;26.42;;;307.30;2304.00;;;;;;5091188;28;20484;-72
2024/02/28 04:26:30;;;;;;;48.80;30.65;;;282.50;2278.40;;;;;;5090998;28;20015;-72
2024/02/28 04:28:56;;;;;;;49.65;32.00;;;282.50;2278.40;;;;;;5091274;28;20514;-72
2024/02/28 04:31:22;;;;;;;40.72;26.52;;;307.20;2304.00;;;;;;5089301;28;20028;-71
2024/02/28 04:33:48;;;;;;;34.28;24.77;;;282.40;2278.40;;;;;;5091426;28;20387;-71
2024/02/28 04:36:15;;;;;;;36.95;24.30;;;282.20;2278.40;;;;;;5090891;28;20103;-72
2024/02/28 04:38:42;;;;;;;68.38;37.22;;;;;;;;;;5090875;28;20055;-72
2024/02/28 04:41:07;;;;;;;38.72;26.85;;;282.20;2278.40;;;;;;5090849;28;20034;-71
2024/02/28 04:43:33;;;;;;;43.28;26.48;;;282.10;2278.40;;;;;;5090528;28;20032;-71
2024/02/28 04:45:59;;;;;;;45.53;27.65;;;282.10;2278.40;;;;;;5090438;28;20082;-72
2024/02/28 04:48:25;;;;;;;40.15;27.08;;;282.10;2278.40;;;;;;5090934;28;20024;-72
2024/02/28 04:50:51;;;;;;;42.47;30.10;;;282.20;2278.40;;;;;;5090477;28;20027;-71
2024/02/28 04:53:17;;;;;;;50.83;32.35;;;282.10;2278.40;;;;;;5090610;28;20069;-72
2024/02/28 04:55:43;;;;;;;48.13;32.58;;;281.90;2278.40;;;;;;5090229;28;20020;-71
2024/02/28 04:58:09;;;;;;;48.90;32.63;;;;;;;;;;5090865;28;20092;-71
2024/02/28 05:00:35;;;;;;;51.15;33.70;;;;;;;;;;5090087;28;20028;-71
2024/02/28 05:03:01;;;;;;;50.92;33.20;;;;;;;;;;5091224;28;20024;-71
2024/02/28 05:05:27;;;;;;;48.38;33.72;;;;;;;;;;5089968;28;20024;-72
2024/02/28 05:07:53;;;;;;;54.45;33.63;;;;;;;;;;5090092;28;20158;-72
2024/02/28 05:10:19;;;;;;;46.85;28.17;;;;;;;;;;5090450;28;20028;-71
2024/02/28 05:12:46;;;;;;;53.80;34.60;;;;;;;;;;5090369;28;20046;-72
2024/02/28 05:15:12;;;;;;;56.42;34.53;;;;;;;;;;5090063;28;20213;-72
2024/02/28 05:17:39;;;;;;;51.75;34.70;;;;;;;;;;5091125;28;20020;-72
2024/02/28 05:20:05;;;;;;;44.53;31.90;;;281.90;2278.40;;;;;;5089897;28;20063;-72
2024/02/28 05:22:31;;;;;;;36.03;25.50;;;;;;;;;;5090535;28;20055;-71
2024/02/28 05:24:57;;;;;;;27.88;19.67;;;281.70;2278.40;;;;;;5089186;28;20080;-72
2024/02/28 05:27:23;;;;;;;37.13;24.30;;;281.70;2278.40;;;;;;5090348;28;20366;-72
2024/02/28 05:29:48;;;;;;;31.13;23.00;;;281.60;2278.40;;;;;;5089721;28;20038;-71
2024/02/28 05:32:14;;;;;;;33.40;21.98;;;281.60;2278.40;;;;;;5090229;28;20062;-72
2024/02/28 05:34:41;;;;;;;32.25;21.25;;;281.60;2278.40;;;;;;5089715;28;20028;-72
2024/02/28 05:37:06;;;;;;;31.50;19.70;;;281.60;2278.40;;;;;;5089695;28;20055;-72
2024/02/28 05:39:33;;;;;;;32.45;21.20;;;281.70;2278.40;;;;;;5089642;28;20158;-76
2024/02/28 05:41:58;;;;;;;37.85;23.08;;;281.90;2278.40;;;;;;5090118;28;20023;-72
2024/02/28 05:44:24;;;;;;;42.38;28.25;;;282.00;2278.40;;;;;;5088938;28;20020;-72
2024/02/28 05:46:50;;;;;;;35.05;23.33;;;282.20;2278.40;;;;;;5089878;28;20024;-72
2024/02/28 05:49:16;;;;;;;31.90;23.27;;;282.30;2278.40;;;;;;5089058;28;20024;-72
2024/02/28 05:51:42;;;;;;;36.65;24.70;;;282.40;2278.40;;;;;;5089797;28;20039;-72
2024/02/28 05:54:07;;;;;;;31.75;23.75;;;307.20;2304.00;;;;;;5089021;28;20036;-71
2024/02/28 05:56:33;;;;;;;33.78;24.33;;;307.30;2304.00;;;;;;5088863;28;20020;-72
2024/02/28 05:58:59;;;;;;;38.28;24.15;;;307.70;2304.00;;;;;;5089755;28;20465;-71
2024/02/28 06:01:25;;;;;;;52.55;38.88;;;307.90;2304.00;;;;;;5089807;28;20020;-72
2024/02/28 06:03:51;;;;;;;36.42;26.90;;;308.10;2304.00;;;;;;5089265;28;20465;-72
2024/02/28 06:06:17;;;;;;;38.92;25.65;;;332.90;2329.60;;;;;;5089222;28;20024;-71
2024/02/28 06:08:43;;;;;;;30.33;19.95;;;332.90;2329.60;;;;;;5089167;28;20032;-75
2024/02/28 06:11:09;;;;;;;25.70;15.90;;;332.80;2329.60;;;;;;5089343;28;20039;-71
2024/02/28 06:13:36;;;;;;;35.78;21.02;;;308.10;2304.00;;;;;;5089131;28;20020;-72
2024/02/28 06:16:02;;;;;;;40.40;28.27;;;308.00;2304.00;;;;;;5089554;28;20036;-71
2024/02/28 06:18:28;;;;;;;26.45;20.48;;;332.80;2329.60;;;;;;5083932;28;20036;-71
2024/02/28 06:20:55;;;;;;;32.53;21.27;;;308.00;2304.00;;;;;;5081490;28;20028;-71
2024/02/28 06:23:21;;;;;;;30.45;17.52;;;333.00;2329.60;;;;;;5088637;28;20016;-72
2024/02/28 06:25:47;;;;;;;28.92;17.13;;;332.90;2329.60;;;;;;5087157;28;20442;-71
2024/02/28 06:28:13;;;;;;;28.85;18.33;;;333.20;2329.60;;;;;;5088907;28;20107;-71
2024/02/28 06:30:39;;;;;;;30.60;19.08;;;333.30;2329.60;;;;;;5089827;28;20024;-72
2024/02/28 06:33:05;;;;;;;29.20;21.25;;;332.90;2329.60;;;;;;5088711;28;20382;-71
2024/02/28 06:35:30;;;;;;;31.65;20.08;;;308.00;2304.00;;;;;;5088893;28;20473;-72
2024/02/28 06:37:56;;;;;;;29.35;18.33;;;308.00;2304.00;;;;;;5087892;28;20047;-72
2024/02/28 06:40:22;;;;;;;30.30;20.50;;;307.90;2304.00;;;;;;5089016;28;20036;-71
2024/02/28 06:42:48;;;;;;;28.58;18.45;;;307.90;2304.00;;;;;;5069388;28;20016;-71
2024/02/28 06:45:14;;;;;;;23.15;17.15;;;307.80;2304.00;;;;;;5080567;28;20040;-71
2024/02/28 06:47:40;;;;;;;29.58;18.42;;;307.80;2304.00;;;;;;5088437;28;20446;-71
2024/02/28 06:50:06;;;;;;;29.77;19.40;;;307.60;2304.00;;;;;;5066296;28;20020;-71
2024/02/28 06:52:33;;;;;;;29.85;20.30;;;307.30;2304.00;;;;;;5088274;28;20068;-70
2024/02/28 06:55:00;;;;;;;25.40;19.00;;;307.30;2304.00;;;;;;5087410;28;20020;-70
2024/02/28 06:57:26;;;;;;;28.77;19.77;;;307.50;2304.00;;;;;;5077565;28;20016;-71
2024/02/28 06:59:52;;;;;;;28.33;19.10;;;307.60;2304.00;;;;;;5088126;28;20450;-71
2024/02/28 07:02:17;;;;;;;28.95;19.55;;;307.70;2304.00;;;;;;5088034;28;20008;-76
2024/02/28 07:04:43;;;;;;;30.92;20.65;;;307.80;2304.00;;;;;;5088038;28;20017;-76
2024/02/28 07:07:09;;;;;;;29.95;20.95;;;307.90;2304.00;;;;;;5082109;28;20099;-75
2024/02/28 07:09:37;;;;;;;33.35;20.95;;;307.90;2304.00;;;;;;5092948;28;20122;-85
2024/02/28 07:12:03;;;;;;;32.97;23.70;;;308.10;2304.00;;;;;;5097378;28;20047;-81
2024/02/28 07:14:29;;;;;;;33.88;21.13;;;308.10;2304.00;;;;;;5082754;28;20019;-83
2024/02/28 07:16:55;;;;;;;34.78;21.58;;;308.10;2304.00;;;;;;5076840;22;20075;-84
2024/02/28 07:19:27;;;;;;;30.38;19.63;;;308.00;2304.00;;;;;;5086692;22;20037;-81
2024/02/28 07:21:52;;;;;;;29.63;21.90;;;308.00;2304.00;;;;;;5034848;28;20041;-81
2024/02/28 07:24:18;;;;;;;37.85;24.30;;;308.00;2304.00;;;;;;5019286;28;20045;-76
2024/02/28 07:26:45;;;;;;;38.72;26.75;;;308.00;2304.00;;;;;;5000939;28;20419;-77
2024/02/28 07:29:11;;;;;;;30.55;20.65;;;332.80;2329.60;;;;;;5018776;28;20080;-76
2024/02/28 07:31:37;;;;;;;34.17;22.08;;;332.80;2329.60;;;;;;5013092;28;20389;-75
2024/02/28 07:34:03;;;;;;;35.50;22.92;;;308.10;2304.00;;;;;;5027756;28;20022;-75
2024/02/28 07:36:29;;;;;;;28.42;19.65;;;308.10;2304.00;;;;;;5031607;28;20017;-74
2024/02/28 07:38:54;;;;;;;35.33;21.67;;;308.10;2304.00;;;;;;5010897;28;20380;-75
2024/02/28 07:41:20;;;;;;;33.53;22.13;;;332.80;2329.60;;;;;;5012263;28;20464;-76
2024/02/28 07:43:46;;;;;;;34.33;22.73;;;332.90;2329.60;;;;;;5012293;28;20427;-75
2024/02/28 07:46:12;;;;;;;38.72;24.83;;;333.10;2329.60;;;;;;5012181;28;20021;-76
2024/02/28 07:48:39;;;;;;;42.35;25.40;;;333.20;2329.60;;;;;;5012313;28;20030;-76
2024/02/28 07:51:05;;;;;;;33.88;25.50;;;333.40;2329.60;;;;;;5011758;28;20058;-78
2024/02/28 07:53:31;;;;;;;35.72;24.63;;;333.50;2329.60;;;;;;4994024;28;20037;-78
2024/02/28 07:55:57;;;;;;;39.85;24.40;;;333.50;2329.60;;;;;;4993611;28;20026;-78
2024/02/28 07:58:23;;;;;;;39.35;28.83;;;333.60;2329.60;;;;;;4994512;28;20526;-80
2024/02/28 08:00:49;;;;;;;40.45;28.60;;;333.60;2329.60;;;;;;5011953;28;20460;-77
2024/02/28 08:03:16;;;;;;;41.58;27.95;;;358.40;2329.60;;;;;;5011792;28;20387;-78
2024/02/28 08:05:43;;;;;;;42.10;28.13;;;358.40;2329.60;;;;;;5011331;28;20036;-81
2024/02/28 08:08:09;;;;;;;81.53;61.30;;;358.50;2329.60;;;;;;5004944;28;20030;-80
2024/02/28 08:10:36;;;;;;;51.65;34.88;;;358.60;2329.60;;;;;;5011691;28;20029;-76
2024/02/28 08:13:02;;;;;;;61.45;39.05;;;358.60;2329.60;;;;;;5011817;28;20072;-77
2024/02/28 08:15:28;;;;;;;62.80;46.63;;;358.50;2329.60;;;;;;4994262;28;20500;-77
2024/02/28 08:17:54;;;;;;;77.40;46.60;;;358.60;2329.60;;;;;;5010479;28;20018;-76
2024/02/28 08:20:20;;;;;;;68.68;47.58;;;358.40;2329.60;;;;;;5011301;28;20061;-75
2024/02/28 08:22:46;;;;;;;78.68;59.05;;;358.40;2329.60;;;;;;5011420;28;20014;-75
2024/02/28 08:25:12;;;;;;;74.57;53.92;;;358.80;2329.60;;;;;;5001669;28;20410;-76
2024/02/28 08:27:38;;;;;;;72.55;50.70;;;384.30;2329.60;;;;;;4998348;28;20025;-76
2024/02/28 08:30:08;;;;;;;74.70;51.80;;;384.60;2329.60;;;;;;5011533;28;20022;-76
2024/02/28 08:32:34;;;;;;;73.55;53.58;;;384.20;2329.60;;;;;;4993633;28;20464;-76
2024/02/28 08:35:00;;;;;;;81.88;53.40;;;384.90;2329.60;;;;;;5011308;28;20030;-76
2024/02/28 08:37:28;;;;;;;86.03;61.40;;;410.20;2355.20;;;;;;4993476;28;20028;-80
2024/02/28 08:39:57;;;;;;;79.95;55.38;;;435.50;2355.20;;;;;;4993234;28;20029;-77
2024/02/28 08:42:26;;;;;;;71.13;50.30;;;461.30;2278.40;;;;;;5011031;28;20033;-81
2024/02/28 08:44:54;;;;;;;68.07;49.78;;;486.60;2176.00;;;;;;5011531;28;20037;-78
2024/02/28 08:47:26;;;;;;;61.97;48.10;;;512.10;2073.60;;;;;;4993354;28;20084;-81
2024/02/28 08:49:53;;;;;;;68.90;47.13;;;512.80;1996.80;;;;;;5011030;28;20109;-76
2024/02/28 08:52:20;;;;;;;74.45;52.13;;;537.90;1971.20;;;;;;5011142;28;20372;-76
2024/02/28 08:54:46;;;;;;;69.43;54.55;;;538.00;1945.60;;;;;;5010798;28;20026;-75
2024/02/28 08:57:12;;;;;;;71.63;59.70;;;563.30;1945.60;;;;;;5010964;28;20348;-76
2024/02/28 08:59:38;;;;;;;82.30;60.92;;;589.10;1843.20;;;;;;5010970;28;20511;-76
2024/02/28 09:02:03;;;;;;;95.78;70.22;;;589.50;1792.00;;;;;;5010354;28;20034;-76
2024/02/28 09:04:29;;;;;;;85.07;73.18;;;640.10;1689.60;;;;;;4992875;28;20121;-76
2024/02/28 09:06:55;;;;;;;91.75;74.57;;;665.60;1638.40;;;;;;5010738;28;20091;-76
2024/02/28 09:09:21;;;;;;;95.50;83.72;;;640.70;1638.40;;;;;;5010788;28;20029;-76
2024/02/28 09:11:47;;;;;;;90.38;69.68;;;640.30;1638.40;;;;;;5010359;28;20041;-83
2024/02/28 09:14:12;;;;;;;86.03;72.55;;;615.00;1689.60;;;;;;5010825;28;20120;-81
2024/02/28 09:16:38;;;;;;;91.00;72.75;;;615.00;1689.60;;;;;;5010885;28;20030;-79
2024/02/28 09:19:04;;;;;;;82.32;71.93;;;589.40;1715.20;;;;;;5010324;28;20391;-82
2024/02/28 09:21:30;;;;;;;85.05;75.07;;;564.10;1766.40;;;;;;5010327;28;20029;-80
2024/02/28 09:23:57;;;;;;;74.30;62.88;;;589.30;1766.40;;;;;;5010270;28;20092;-76
2024/02/28 09:26:22;;;;;;;62.92;56.10;;;589.00;1766.40;;;;;;5010385;28;20097;-77
2024/02/28 09:28:48;;;;;;;65.65;55.90;;;589.50;1740.80;;;;;;5010232;28;20030;-77
2024/02/28 09:31:17;;;;;;;66.43;59.10;;;614.80;1689.60;;;;;;5009998;28;20040;-78
2024/02/28 09:33:43;;;;;;;52.75;46.80;;;563.40;1792.00;;;;;;5010347;28;20026;-74
2024/02/28 09:36:08;;;;;;;61.33;42.47;;;538.10;1817.60;;;;;;5010096;28;20024;-76
2024/02/28 09:38:34;;;;;;;64.22;51.78;;;512.50;1868.80;;;;;;4991851;28;20068;-77
2024/02/28 09:41:01;;;;;;;72.13;48.88;;;537.80;1868.80;;;;;;5010071;28;20030;-78
2024/02/28 09:43:32;;;;;;;61.63;40.30;;;512.90;1894.40;;;;;;4992210;28;20029;-80
2024/02/28 09:46:04;;;;;;;51.63;37.50;;;537.70;1894.40;;;;;;5009561;28;20014;-79
2024/02/28 09:48:30;;;;;;;74.53;51.88;;;537.70;1868.80;;;;;;5010240;28;20494;-78
2024/02/28 09:51:00;;;;;;;52.05;39.30;;;537.60;1894.40;;;;;;5009289;28;20134;-76
2024/02/28 09:53:26;;;;;;;47.22;35.70;;;537.90;1894.40;;;;;;5009476;28;20033;-79
2024/02/28 09:55:53;;;;;;;54.97;42.67;;;512.80;1920.00;;;;;;5009607;28;20026;-80
2024/02/28 09:58:22;;;;;;;43.63;29.20;;;537.80;1920.00;;;;;;5009947;28;20026;-80
2024/02/28 10:00:49;;;;;;;38.53;27.30;;;;;;;;;;5009831;28;20038;-79
2024/02/28 10:03:21;;;;;;;41.10;25.58;;;512.20;1945.60;;;;;;5009818;28;20029;-76
2024/02/28 10:05:47;;;;;;;33.78;23.80;;;512.00;1971.20;;;;;;4996867;28;20021;-76
2024/02/28 10:08:14;;;;;;;30.75;21.77;;;512.60;1945.60;;;;;;5009496;28;20018;-76
2024/02/28 10:10:49;;;;;;;24.65;18.90;;;512.80;1920.00;;;;;;5009463;28;20029;-77
2024/02/28 10:13:18;;;;;;;26.33;17.33;;;537.80;1920.00;;;;;;5009305;28;20540;-79
2024/02/28 10:15:44;;;;;;;22.42;13.15;;;538.00;1920.00;;;;;;5009315;28;20108;-75
2024/02/28 10:18:10;;;;;;;18.80;12.05;;;537.70;1920.00;;;;;;5009040;28;20103;-80
2024/02/28 10:20:36;;;;;;;17.65;12.18;;;512.90;1843.20;;;;;;5009197;28;20137;-75
2024/02/28 10:23:09;;;;;;;18.17;9.32;;;512.90;1894.40;;;;;;5009232;28;20101;-80
2024/02/28 10:25:44;;;;;;;;;;;512.90;1843.20;;;;;;5010063;28;20491;-80
2024/02/28 10:28:10;;;;;;;18.10;9.05;;;538.00;1843.20;;;;;;5009429;28;19971;-75
2024/02/28 10:30:43;;;;;;;26.20;16.45;;;512.90;1843.20;;;;;;5009524;28;20021;-79
2024/02/28 10:33:15;;;;;;;21.20;12.95;;;512.70;1868.80;;;;;;5009205;28;20020;-75
2024/02/28 10:35:42;;;;;;;18.73;9.50;;;512.50;1843.20;;;;;;5008950;28;20036;-75
2024/02/28 10:38:13;;;;;;;13.55;7.90;;;537.80;1843.20;;;;;;5008909;28;20318;-75
2024/02/28 10:40:42;;;;;;;14.57;8.98;;;537.70;1817.60;;;;;;5009393;28;20096;-74
2024/02/28 10:43:09;;;;;;;11.60;7.63;;;537.60;1817.60;;;;;;5012884;28;20018;-79
2024/02/28 10:45:41;;;;;;;15.30;8.10;;;512.90;1792.00;;;;;;5012926;28;20036;-75
2024/02/28 10:48:08;;;;;;;24.30;10.07;;;538.00;1792.00;;;;;;5012931;28;20029;-76
2024/02/28 10:50:34;;;;;;;14.55;8.38;;;512.90;1792.00;;;;;;5012764;28;20095;-75
2024/02/28 10:53:03;;;;;;;14.20;8.00;;;537.80;1817.60;;;;;;5011511;28;20468;-74
2024/02/28 10:55:40;;;;;;;18.70;9.68;;;537.60;1817.60;;;;;;5009035;28;20041;-74
2024/02/28 10:58:13;;;;;;;15.05;8.25;;;538.00;1817.60;;;;;;5008932;28;20077;-80
2024/02/28 11:00:41;;;;;;;15.80;8.52;;;537.80;1817.60;;;;;;5009387;28;20371;-76
2024/02/28 11:03:09;;;;;;;15.82;8.65;;;512.90;1792.00;;;;;;5008934;28;20113;-78
2024/02/28 11:05:40;;;;;;;18.50;9.88;;;538.00;1817.60;;;;;;5008784;28;20018;-78
2024/02/28 11:08:10;;;;;;;18.67;9.82;;;537.80;1817.60;;;;;;5008755;28;20089;-78
2024/02/28 11:10:43;;;;;;;16.38;7.97;;;538.00;1817.60;;;;;;5008754;28;20022;-79
2024/02/28 11:13:10;;;;;;;15.07;8.30;;;537.80;1817.60;;;;;;5008788;28;20025;-78
2024/02/28 11:15:36;;;;;;;12.18;9.32;;;537.80;1817.60;;;;;;5009070;28;20483;-78
2024/02/28 11:18:10;;;;;;;12.80;8.02;;;538.00;1843.20;;;;;;5008667;28;20388;-79
2024/02/28 11:20:35;;;;;;;;;;;538.10;1817.60;;;;;;5008847;28;20057;-79
2024/02/28 11:23:01;;;;;;;19.88;9.70;;;538.40;1792.00;;;;;;5008729;28;19909;-75
2024/02/28 11:25:27;;;;;;;22.30;10.38;;;537.70;1817.60;;;;;;5008633;28;20049;-80
2024/02/28 11:27:53;;;;;;;21.42;9.60;;;537.70;1843.20;;;;;;5008770;28;20048;-81
2024/02/28 11:30:19;;;;;;;20.08;9.60;;;537.90;1843.20;;;;;;5008713;28;20495;-75
2024/02/28 11:32:45;;;;;;;20.98;9.35;;;538.00;1843.20;;;;;;5008749;28;20034;-76
2024/02/28 11:35:14;;;;;;;18.23;9.65;;;537.80;1843.20;;;;;;5008795;28;20353;-77
2024/02/28 11:37:40;;;;;;;27.35;11.10;;;538.00;1817.60;;;;;;5008904;28;20480;-81
2024/02/28 11:40:12;;;;;;;19.92;12.00;;;538.10;1817.60;;;;;;5008494;28;20034;-76
2024/02/28 11:42:41;;;;;;;15.90;8.38;;;538.00;1843.20;;;;;;5008830;28;20476;-79
2024/02/28 11:45:10;;;;;;;15.10;8.25;;;537.80;1817.60;;;;;;5008704;28;20096;-79
2024/02/28 11:47:36;;;;;;;22.25;9.23;;;538.00;1792.00;;;;;;5008623;28;20475;-79
2024/02/28 11:50:03;;;;;;;18.70;9.60;;;538.10;1792.00;;;;;;5008491;28;20044;-79
2024/02/28 11:52:33;;;;;;;24.65;9.75;;;537.80;1792.00;;;;;;5009674;28;20022;-80
2024/02/28 11:54:59;;;;;;;18.20;8.68;;;537.70;1817.60;;;;;;5012444;28;20106;-79
2024/02/28 11:57:29;;;;;;;25.50;10.15;;;537.80;1792.00;;;;;;5012180;28;20101;-80
2024/02/28 11:59:55;;;;;;;17.48;9.00;;;538.00;1792.00;;;;;;5011822;28;20113;-79
2024/02/28 12:02:26;;;;;;;19.70;9.27;;;538.40;1817.60;;;;;;5012364;28;20068;-79